Time;durP1;ratioP1;P1;durP2;ratioP2;P2;SDS_P1;SDS_P2;PMS_P1;PMS_P2;Temp;Humidity;BMP_temperature;BMP_pressure;BME280_temperature;BME280_humidity;BME280_pressure;Samples;Min_cycle;Max_cycle;Signal;HPM_P1;HPM_P2
2021/11/29 00:02:01;;;;;;;16.80;8.27;;;;;;;-1.24;100.00;93682.28;5027534;28;20172;-75
2021/11/29 00:04:27;;;;;;;15.85;8.32;;;;;;;-1.15;100.00;93672.34;5024034;28;20061;-75
2021/11/29 00:06:52;;;;;;;18.80;8.88;;;;;;;-1.06;100.00;93675.28;5024100;28;20794;-75
2021/11/29 00:09:18;;;;;;;18.25;8.55;;;;;;;-1.20;100.00;93679.25;5027073;28;20103;-75
2021/11/29 00:11:43;;;;;;;17.60;8.77;;;;;;;-1.17;100.00;93679.53;5028031;28;20045;-74
2021/11/29 00:14:09;;;;;;;17.50;8.05;;;;;;;-1.05;100.00;93682.78;5020529;28;20053;-76
2021/11/29 00:16:35;;;;;;;19.75;9.23;;;;;;;-1.22;100.00;93688.00;5028369;28;20049;-74
2021/11/29 00:19:04;;;;;;;16.90;8.57;;;;;;;-1.28;100.00;93704.44;5025601;28;20037;-75
2021/11/29 00:21:30;;;;;;;17.67;8.93;;;;;;;-1.18;100.00;93697.84;5024601;28;20064;-76
2021/11/29 00:23:55;;;;;;;19.55;8.90;;;;;;;-1.25;100.00;93698.81;5024623;28;20107;-76
2021/11/29 00:26:22;;;;;;;21.65;9.35;;;;;;;-1.31;100.00;93699.75;5026205;28;20041;-76
2021/11/29 00:28:48;;;;;;;19.67;9.40;;;;;;;-1.26;100.00;93702.41;5024533;28;20047;-75
2021/11/29 00:31:14;;;;;;;20.17;8.65;;;;;;;-1.13;100.00;93705.66;5025042;28;20041;-75
2021/11/29 00:33:40;;;;;;;19.00;9.52;;;;;;;-1.22;100.00;93708.66;5015765;28;20049;-74
2021/11/29 00:36:06;;;;;;;18.58;9.60;;;;;;;-1.22;100.00;93713.81;5018965;28;20045;-75
2021/11/29 00:38:32;;;;;;;18.88;9.48;;;;;;;-1.18;100.00;93721.06;5021277;28;20042;-75
2021/11/29 00:40:58;;;;;;;18.55;9.30;;;;;;;-1.28;100.00;93713.97;5008523;28;20085;-75
2021/11/29 00:43:24;;;;;;;19.27;9.25;;;;;;;-1.24;100.00;93723.56;5005777;28;20063;-74
2021/11/29 00:45:49;;;;;;;18.05;9.27;;;;;;;-1.20;100.00;93715.38;5005204;28;20396;-74
2021/11/29 00:48:15;;;;;;;21.30;9.77;;;;;;;-1.24;100.00;93721.00;5023019;28;20072;-75
2021/11/29 00:50:41;;;;;;;25.83;10.68;;;;;;;-1.18;100.00;93723.66;5022330;28;20045;-75
2021/11/29 00:53:10;;;;;;;20.75;9.65;;;;;;;-1.20;100.00;93728.28;5029692;28;20121;-75
2021/11/29 00:55:37;;;;;;;19.35;9.30;;;;;;;-1.12;100.00;93727.84;5002825;28;20037;-75
2021/11/29 00:58:04;;;;;;;22.33;11.23;;;;;;;-1.25;100.00;93723.81;5027678;28;20041;-75
2021/11/29 01:00:30;;;;;;;20.90;9.98;;;;;;;-1.20;100.00;93730.84;5031259;28;20067;-75
2021/11/29 01:02:56;;;;;;;22.55;10.50;;;;;;;-1.12;100.00;93727.84;5027596;28;20045;-75
2021/11/29 01:05:22;;;;;;;24.20;11.13;;;;;;;-1.16;100.00;93737.13;5026050;28;20044;-75
2021/11/29 01:07:48;;;;;;;23.73;10.90;;;;;;;-1.20;100.00;93741.19;5030185;28;20160;-75
2021/11/29 01:10:16;;;;;;;25.05;11.65;;;;;;;-1.22;100.00;93744.00;5031299;28;20408;-75
2021/11/29 01:12:43;;;;;;;26.63;11.13;;;;;;;-1.16;100.00;93747.44;5030368;28;20117;-75
2021/11/29 01:15:11;;;;;;;23.23;11.10;;;;;;;-1.20;100.00;93751.50;5030132;28;20053;-75
2021/11/29 01:17:37;;;;;;;23.83;11.13;;;;;;;-1.23;100.00;93748.38;5031484;28;20045;-75
2021/11/29 01:20:06;;;;;;;24.15;10.80;;;;;;;-1.30;100.00;93750.34;5030295;28;20048;-75
2021/11/29 01:22:32;;;;;;;20.58;10.43;;;;;;;-1.19;100.00;93742.72;5040611;28;20098;-74
2021/11/29 01:24:57;;;;;;;24.35;11.05;;;;;;;-1.17;100.00;93751.03;5046890;28;20068;-74
2021/11/29 01:27:23;;;;;;;21.65;10.63;;;;;;;-1.00;100.00;93745.81;5033759;28;20045;-75
2021/11/29 01:29:48;;;;;;;22.88;11.15;;;;;;;-1.12;100.00;93751.06;5030314;28;20518;-75
2021/11/29 01:32:14;;;;;;;22.13;11.45;;;;;;;-1.05;100.00;93749.09;5030234;28;20119;-75
2021/11/29 01:34:39;;;;;;;19.70;9.98;;;;;;;-1.02;100.00;93748.66;5038471;28;20052;-75
2021/11/29 01:37:05;;;;;;;22.30;10.23;;;;;;;-1.17;100.00;93740.69;5012716;28;20750;-75
2021/11/29 01:39:31;;;;;;;20.42;10.00;;;;;;;-1.20;100.00;93743.75;5026404;28;20075;-75
2021/11/29 01:41:57;;;;;;;20.50;10.27;;;;;;;-1.14;100.00;93745.38;5030421;28;20572;-75
2021/11/29 01:44:23;;;;;;;15.82;8.65;;;;;;;-1.03;100.00;93759.97;5027237;28;20049;-75
2021/11/29 01:46:49;;;;;;;23.42;9.68;;;;;;;-1.12;100.00;93753.66;5030498;28;20045;-75
2021/11/29 01:49:15;;;;;;;20.35;9.50;;;;;;;-1.18;100.00;93754.63;5011931;28;20057;-74
2021/11/29 01:51:41;;;;;;;20.00;9.65;;;;;;;-1.08;100.00;93759.91;5004628;28;20121;-74
2021/11/29 01:54:08;;;;;;;18.75;9.77;;;;;;;-1.24;100.00;93751.19;5029349;28;20045;-75
2021/11/29 01:56:33;;;;;;;18.67;9.50;;;;;;;-1.16;100.00;93755.19;5030685;28;20837;-75
2021/11/29 01:58:59;;;;;;;18.00;8.80;;;;;;;-1.27;100.00;93752.44;5011397;28;20045;-75
2021/11/29 02:01:25;;;;;;;19.83;9.50;;;;;;;-1.24;100.00;93757.13;5032741;28;20041;-74
2021/11/29 02:03:56;;;;;;;17.35;8.98;;;;;;;-1.19;100.00;93763.38;5017471;28;20059;-75
2021/11/29 02:06:28;;;;;;;21.23;9.52;;;;;;;-1.17;100.00;93767.28;5024413;28;20079;-75
2021/11/29 02:08:55;;;;;;;20.30;9.02;;;;;;;-1.24;100.00;93770.03;5029975;28;20053;-75
2021/11/29 02:11:22;;;;;;;20.95;9.98;;;;;;;-1.21;100.00;93773.94;5029679;28;20038;-75
2021/11/29 02:13:48;;;;;;;21.08;9.18;;;;;;;-1.20;100.00;93777.31;5021605;28;20050;-75
2021/11/29 02:16:14;;;;;;;18.67;9.52;;;;;;;-1.27;100.00;93774.91;5026330;28;20051;-75
2021/11/29 02:18:42;;;;;;;19.30;9.25;;;;;;;-1.14;100.00;93771.19;5029430;28;20045;-75
2021/11/29 02:21:17;;;;;;;22.70;9.40;;;;;;;-1.16;100.00;93778.41;5029748;28;20538;-75
2021/11/29 02:23:46;;;;;;;22.17;10.50;;;;;;;-1.16;100.00;93779.19;5019906;28;20046;-75
2021/11/29 02:26:12;;;;;;;19.83;10.38;;;;;;;-1.11;100.00;93776.66;5012186;28;20149;-75
2021/11/29 02:28:41;;;;;;;22.48;9.90;;;;;;;-1.15;100.00;93787.69;5024772;28;20056;-75
2021/11/29 02:31:09;;;;;;;25.67;10.35;;;;;;;-1.17;100.00;93784.59;5029347;28;20046;-75
2021/11/29 02:33:35;;;;;;;22.65;9.45;;;;;;;-1.17;100.00;93793.09;5029211;28;20045;-75
2021/11/29 02:36:01;;;;;;;19.08;9.13;;;;;;;-1.12;100.00;93789.81;5027561;28;20510;-75
2021/11/29 02:38:26;;;;;;;21.58;9.30;;;;;;;-0.99;100.00;93786.09;5029157;28;20045;-75
2021/11/29 02:40:52;;;;;;;24.13;10.02;;;;;;;-1.18;100.00;93796.69;5029636;28;20049;-76
2021/11/29 02:43:17;;;;;;;22.13;10.05;;;;;;;-1.13;100.00;93790.84;5025101;28;20224;-76
2021/11/29 02:45:43;;;;;;;20.13;9.77;;;;;;;-1.14;100.00;93802.19;5011545;28;20050;-75
2021/11/29 02:48:09;;;;;;;25.10;10.57;;;;;;;-1.15;100.00;93800.59;5029617;28;20045;-75
2021/11/29 02:50:35;;;;;;;22.98;10.07;;;;;;;-1.28;100.00;93802.53;5028016;28;20038;-75
2021/11/29 02:53:03;;;;;;;21.30;10.50;;;;;;;-1.27;100.00;93804.06;5022037;28;20033;-75
2021/11/29 02:55:28;;;;;;;18.45;9.68;;;;;;;-1.26;100.00;93815.97;5024564;28;20702;-75
2021/11/29 02:57:54;;;;;;;23.30;10.65;;;;;;;-1.29;100.00;93811.28;5024390;28;20041;-74
2021/11/29 03:00:19;;;;;;;23.73;10.23;;;;;;;-1.17;100.00;93824.06;5011446;28;20045;-75
2021/11/29 03:02:45;;;;;;;22.45;10.40;;;;;;;-1.20;100.00;93811.66;5006922;28;20041;-75
2021/11/29 03:05:10;;;;;;;22.83;10.93;;;;;;;-1.23;100.00;93825.81;5023251;28;20037;-75
2021/11/29 03:07:36;;;;;;;25.48;10.98;;;;;;;-1.23;100.00;93820.63;5017121;28;20061;-75
2021/11/29 03:10:04;;;;;;;22.75;11.27;;;;;;;-1.12;100.00;93820.78;5028990;28;20073;-76
2021/11/29 03:12:29;;;;;;;27.27;11.18;;;;;;;-1.01;100.00;93832.81;5010180;28;20132;-75
2021/11/29 03:14:55;;;;;;;26.63;11.57;;;;;;;-1.10;100.00;93834.25;5026309;28;20534;-75
2021/11/29 03:17:20;;;;;;;26.73;11.23;;;;;;;-1.08;100.00;93832.19;5031782;28;20041;-75
2021/11/29 03:19:47;;;;;;;23.30;11.43;;;;;;;-1.09;100.00;93828.06;5048996;28;20045;-76
2021/11/29 03:22:13;;;;;;;22.98;10.75;;;;;;;-0.99;100.00;93830.78;5027477;28;20072;-75
2021/11/29 03:24:45;;;;;;;24.50;11.02;;;;;;;-1.12;100.00;93837.06;5027654;28;20403;-75
2021/11/29 03:27:11;;;;;;;26.30;11.63;;;;;;;-1.07;100.00;93833.78;5007861;28;20136;-75
2021/11/29 03:29:37;;;;;;;22.77;11.70;;;;;;;-1.07;100.00;93844.88;5016152;28;20048;-74
2021/11/29 03:32:04;;;;;;;25.08;11.85;;;;;;;-1.02;100.00;93851.94;5027723;28;20049;-75
2021/11/29 03:34:32;;;;;;;26.58;11.68;;;;;;;-1.06;100.00;93845.66;5028951;28;20136;-75
2021/11/29 03:36:59;;;;;;;24.23;11.75;;;;;;;-1.20;100.00;93839.28;5026482;28;20086;-75
2021/11/29 03:39:28;;;;;;;23.55;11.80;;;;;;;-1.32;100.00;93853.03;5009127;28;20045;-76
2021/11/29 03:41:57;;;;;;;25.33;11.45;;;;;;;-1.20;100.00;93854.75;5024057;28;20037;-74
2021/11/29 03:44:23;;;;;;;25.02;12.15;;;;;;;-1.23;100.00;93854.19;5028624;28;20068;-74
2021/11/29 03:46:50;;;;;;;24.60;11.60;;;;;;;-1.19;100.00;93851.94;5026290;28;20056;-74
2021/11/29 03:49:19;;;;;;;24.73;12.07;;;;;;;-1.22;100.00;93857.56;5028520;28;20495;-75
2021/11/29 03:51:45;;;;;;;30.90;12.50;;;;;;;-1.17;100.00;93855.06;5009505;28;20050;-74
2021/11/29 03:54:10;;;;;;;25.58;11.85;;;;;;;-1.22;100.00;93857.56;5006808;28;20065;-75
2021/11/29 03:56:37;;;;;;;27.42;11.63;;;;;;;-1.06;100.00;93856.75;5019682;28;20060;-74
2021/11/29 03:59:04;;;;;;;25.92;13.10;;;;;;;-1.18;100.00;93853.47;5026722;28;20412;-75
2021/11/29 04:01:29;;;;;;;24.67;11.77;;;;;;;-1.24;100.00;93857.78;5027366;28;20053;-74
2021/11/29 04:03:55;;;;;;;24.90;11.77;;;;;;;-1.33;100.00;93861.78;5027943;28;20068;-75
2021/11/29 04:06:21;;;;;;;26.65;12.57;;;;;;;-1.32;100.00;93863.38;5027700;28;20045;-75
2021/11/29 04:08:46;;;;;;;26.00;11.48;;;;;;;-1.41;100.00;93870.72;5011289;28;20037;-75
2021/11/29 04:11:12;;;;;;;27.15;12.52;;;;;;;-1.42;100.00;93873.53;5015955;28;20423;-74
2021/11/29 04:13:37;;;;;;;31.00;13.00;;;;;;;-1.46;100.00;93877.59;5034438;28;20048;-75
2021/11/29 04:16:03;;;;;;;29.98;12.70;;;;;;;-1.47;100.00;93876.03;5007754;28;20833;-75
2021/11/29 04:18:29;;;;;;;27.42;12.77;;;;;;;-1.43;100.00;93875.31;5028012;28;20056;-75
2021/11/29 04:20:56;;;;;;;27.83;12.02;;;;;;;-1.40;100.00;93879.22;5026946;28;20640;-75
2021/11/29 04:23:22;;;;;;;26.58;12.95;;;;;;;-1.39;100.00;93878.22;5029546;28;20779;-75
2021/11/29 04:25:53;;;;;;;25.83;12.48;;;;;;;-1.47;100.00;93881.19;5009591;28;20056;-75
2021/11/29 04:28:19;;;;;;;27.10;12.50;;;;;;;-1.48;100.00;93877.03;5014921;28;20499;-75
2021/11/29 04:30:45;;;;;;;28.00;13.88;;;;;;;-1.53;100.00;93887.28;5012494;28;20041;-75
2021/11/29 04:33:11;;;;;;;29.70;13.60;;;;;;;-1.58;100.00;93886.19;5027249;28;20045;-75
2021/11/29 04:35:37;;;;;;;32.15;13.73;;;;;;;-1.34;100.00;93890.41;5027000;28;20053;-75
2021/11/29 04:38:04;;;;;;;26.50;13.18;;;;;;;-1.36;100.00;93888.06;5025051;28;20044;-75
2021/11/29 04:40:30;;;;;;;26.15;12.70;;;;;;;-1.35;100.00;93894.00;5027634;28;20183;-74
2021/11/29 04:42:56;;;;;;;30.73;13.00;;;;;;;-1.38;100.00;93890.09;5026917;28;20045;-75
2021/11/29 04:45:21;;;;;;;30.35;13.35;;;;;;;-1.36;100.00;93898.41;5010116;28;20041;-75
2021/11/29 04:47:47;;;;;;;29.08;13.77;;;;;;;-1.39;100.00;93906.63;4999438;28;20096;-75
2021/11/29 04:50:13;;;;;;;27.60;12.82;;;;;;;-1.44;100.00;93911.69;5021005;28;20045;-75
2021/11/29 04:52:39;;;;;;;27.83;13.82;;;;;;;-1.52;100.00;93904.31;5026693;28;20042;-75
2021/11/29 04:55:06;;;;;;;27.30;14.27;;;;;;;-1.54;100.00;93916.66;5027596;28;20045;-75
2021/11/29 04:57:31;;;;;;;29.88;13.82;;;;;;;-1.55;100.00;93921.06;5004903;28;20042;-75
2021/11/29 04:59:57;;;;;;;28.00;13.18;;;;;;;-1.56;100.00;93919.47;5024222;28;20042;-74
2021/11/29 05:02:22;;;;;;;32.35;14.35;;;;;;;-1.45;100.00;93925.59;5008477;28;20049;-75
2021/11/29 05:04:48;;;;;;;33.00;13.68;;;;;;;-1.53;100.00;93928.56;5027357;28;20122;-75
2021/11/29 05:07:15;;;;;;;30.38;13.15;;;;;;;-1.49;100.00;93934.81;5019416;28;20049;-75
2021/11/29 05:09:42;;;;;;;29.92;14.35;;;;;;;-1.52;100.00;93940.44;5027588;28;20052;-75
2021/11/29 05:12:14;;;;;;;31.67;14.75;;;;;;;-1.49;100.00;93940.00;5026632;28;20064;-75
2021/11/29 05:14:40;;;;;;;28.67;14.38;;;;;;;-1.46;100.00;93949.84;5023079;28;20569;-75
2021/11/29 05:17:05;;;;;;;30.30;14.05;;;;;;;-1.43;100.00;93939.06;5008783;28;20068;-75
2021/11/29 05:19:31;;;;;;;29.65;13.80;;;;;;;-1.44;100.00;93942.63;5009700;28;20049;-75
2021/11/29 05:21:57;;;;;;;29.95;13.68;;;;;;;-1.38;100.00;93949.44;5008060;28;20038;-75
2021/11/29 05:24:22;;;;;;;27.95;14.35;;;;;;;-1.45;100.00;93956.53;5020171;28;20491;-75
2021/11/29 05:26:48;;;;;;;26.77;12.05;;;;;;;-1.36;100.00;93955.16;5026188;28;20632;-75
2021/11/29 05:29:15;;;;;;;27.63;13.23;;;;;;;-1.33;100.00;93961.66;5026936;28;20140;-75
2021/11/29 05:31:42;;;;;;;27.80;12.95;;;;;;;-1.46;100.00;93960.16;5026304;28;20041;-75
2021/11/29 05:34:07;;;;;;;24.95;12.35;;;;;;;-1.33;100.00;93975.34;5026413;28;20643;-75
2021/11/29 05:36:33;;;;;;;27.35;12.88;;;;;;;-1.46;100.00;93978.22;5024071;28;20133;-75
2021/11/29 05:38:58;;;;;;;27.55;13.10;;;;;;;-1.52;100.00;93982.50;5030675;28;20096;-75
2021/11/29 05:41:24;;;;;;;32.92;12.80;;;;;;;-1.52;100.00;93982.50;5029809;28;20065;-75
2021/11/29 05:43:50;;;;;;;25.65;12.63;;;;;;;-1.48;100.00;93987.97;5030298;28;20053;-75
2021/11/29 05:46:21;;;;;;;26.27;12.50;;;;;;;-1.42;100.00;93987.06;5022475;28;20046;-75
2021/11/29 05:48:47;;;;;;;26.80;13.68;;;;;;;-1.41;100.00;93998.94;5030677;28;20048;-77
2021/11/29 05:51:12;;;;;;;25.13;11.55;;;;;;;-1.28;100.00;94000.44;5008294;28;20474;-74
2021/11/29 05:53:38;;;;;;;27.52;12.05;;;;;;;-1.35;100.00;94003.19;5025684;28;20396;-75
2021/11/29 05:56:04;;;;;;;26.05;12.02;;;;;;;-1.38;100.00;94003.63;5012082;28;20068;-75
2021/11/29 05:58:30;;;;;;;29.48;12.93;;;;;;;-1.47;100.00;94010.19;5028901;28;20503;-75
2021/11/29 06:00:56;;;;;;;24.48;12.18;;;;;;;-1.41;100.00;94015.22;5030167;28;20042;-77
2021/11/29 06:03:22;;;;;;;25.92;12.45;;;;;;;-1.40;100.00;94010.84;5029871;28;20045;-75
2021/11/29 06:05:47;;;;;;;23.33;10.85;;;;;;;-1.36;100.00;94027.44;5029427;28;20037;-76
2021/11/29 06:08:13;;;;;;;26.67;12.43;;;;;;;-1.26;100.00;94025.03;5031168;28;20046;-75
2021/11/29 06:10:38;;;;;;;25.27;11.25;;;;;;;-1.38;100.00;94028.66;5029811;28;20052;-76
2021/11/29 06:13:04;;;;;;;28.42;12.85;;;;;;;-1.42;100.00;94039.47;5029827;28;20045;-75
2021/11/29 06:15:30;;;;;;;29.13;12.90;;;;;;;-1.35;100.00;94034.16;5028851;28;20049;-76
2021/11/29 06:17:55;;;;;;;29.17;12.77;;;;;;;-1.46;100.00;94037.56;5006767;28;20033;-76
2021/11/29 06:20:22;;;;;;;28.08;13.32;;;;;;;-1.42;100.00;94041.25;5029304;28;20041;-75
2021/11/29 06:22:50;;;;;;;30.17;12.73;;;;;;;-1.48;100.00;94049.91;5030392;28;20045;-76
2021/11/29 06:25:17;;;;;;;25.45;11.82;;;;;;;-1.42;100.00;94064.50;5028741;28;20072;-76
2021/11/29 06:27:43;;;;;;;26.30;12.38;;;;;;;-1.50;100.00;94063.03;5008862;28;20041;-76
2021/11/29 06:30:09;;;;;;;22.88;11.23;;;;;;;-1.37;100.00;94066.38;4998376;28;20044;-76
2021/11/29 06:32:34;;;;;;;24.55;11.65;;;;;;;-1.40;100.00;94072.78;5003140;28;20040;-76
2021/11/29 06:35:00;;;;;;;22.95;11.82;;;;;;;-1.33;100.00;94078.59;5032368;28;20052;-75
2021/11/29 06:37:27;;;;;;;24.83;12.02;;;;;;;-1.46;100.00;94078.84;5021276;28;20411;-76
2021/11/29 06:39:54;;;;;;;26.48;12.15;;;;;;;-1.50;100.00;94082.91;5028770;28;20048;-76
2021/11/29 06:42:19;;;;;;;28.90;12.40;;;;;;;-1.47;100.00;94082.44;5027797;28;20079;-76
2021/11/29 06:44:45;;;;;;;27.92;12.00;;;;;;;-1.53;100.00;94088.53;5020415;28;20125;-76
2021/11/29 06:47:11;;;;;;;24.25;12.32;;;;;;;-1.46;100.00;94095.13;5025868;28;20120;-76
2021/11/29 06:49:36;;;;;;;28.13;12.63;;;;;;;-1.40;100.00;94098.56;5005434;28;20045;-75
2021/11/29 06:52:04;;;;;;;27.20;12.32;;;;;;;-1.46;100.00;94104.66;5010586;28;20041;-75
2021/11/29 06:54:35;;;;;;;24.65;12.15;;;;;;;-1.33;100.00;94104.41;5027399;28;20045;-75
2021/11/29 06:57:01;;;;;;;25.13;12.13;;;;;;;-1.29;100.00;94110.66;5027619;28;20045;-76
2021/11/29 06:59:28;;;;;;;25.95;12.10;;;;;;;-1.22;100.00;94115.72;5028435;28;20037;-76
2021/11/29 07:01:54;;;;;;;22.40;11.18;;;;;;;-1.44;100.00;94113.75;5028289;28;20041;-75
2021/11/29 07:04:20;;;;;;;25.63;11.80;;;;;;;-1.45;100.00;94126.84;5028457;28;20041;-75
2021/11/29 07:06:46;;;;;;;23.95;11.77;;;;;;;-1.42;100.00;94126.41;5003351;28;20124;-76
2021/11/29 07:09:13;;;;;;;28.15;13.20;;;;;;;-1.46;100.00;94120.16;5010805;28;20519;-76
2021/11/29 07:11:38;;;;;;;27.80;12.18;;;;;;;-1.39;100.00;94131.13;5027824;28;20056;-76
2021/11/29 07:14:05;;;;;;;27.08;12.38;;;;;;;-1.41;100.00;94130.53;5027845;28;20041;-76
2021/11/29 07:16:34;;;;;;;29.42;12.07;;;;;;;-1.44;100.00;94134.41;5028358;28;20450;-76
2021/11/29 07:18:59;;;;;;;29.67;12.75;;;;;;;-1.39;100.00;94141.44;5023841;28;20051;-76
2021/11/29 07:21:25;;;;;;;23.65;11.20;;;;;;;-1.46;100.00;94141.56;5026459;28;20141;-75
2021/11/29 07:23:50;;;;;;;24.58;11.90;;;;;;;-1.46;100.00;94135.63;5027659;28;20083;-75
2021/11/29 07:26:16;;;;;;;29.13;12.05;;;;;;;-1.44;100.00;94146.50;5016263;28;20061;-76
2021/11/29 07:28:41;;;;;;;26.02;12.57;;;;;;;-1.45;100.00;94152.66;5013702;28;20033;-76
2021/11/29 07:31:07;;;;;;;28.85;12.63;;;;;;;-1.34;100.00;94149.28;5027387;28;20052;-76
2021/11/29 07:33:33;;;;;;;25.73;13.32;;;;;;;-1.42;100.00;94152.22;5027327;28;20041;-75
2021/11/29 07:35:58;;;;;;;26.50;13.23;;;;;;;-1.32;100.00;94161.94;5027734;28;20038;-76
2021/11/29 07:38:24;;;;;;;29.73;13.05;;;;;;;-1.34;100.00;94159.59;5013253;28;20503;-76
2021/11/29 07:40:50;;;;;;;29.58;13.43;;;;;;;-1.31;100.00;94168.69;5000460;28;20514;-76
2021/11/29 07:43:17;;;;;;;29.55;14.05;;;;;;;-1.35;100.00;94168.38;5006707;28;20048;-76
2021/11/29 07:45:44;;;;;;;29.08;13.75;;;;;;;-1.28;100.00;94174.19;5026952;28;20095;-75
2021/11/29 07:48:10;;;;;;;29.70;13.98;;;;;;;-1.16;100.00;94175.97;5024211;28;20041;-76
2021/11/29 07:50:36;;;;;;;32.92;13.23;;;;;;;-1.18;100.00;94180.56;5026972;28;20132;-77
2021/11/29 07:53:03;;;;;;;30.08;13.60;;;;;;;-1.27;100.00;94186.06;5022426;28;20041;-76
2021/11/29 07:55:29;;;;;;;25.17;13.30;;;;;;;-1.37;100.00;94185.09;5024561;28;20041;-75
2021/11/29 07:57:57;;;;;;;30.88;14.00;;;;;;;-1.40;100.00;94191.47;5024464;28;20573;-75
2021/11/29 08:00:25;;;;;;;28.95;14.27;;;;;;;-1.39;100.00;94187.91;5024871;28;20048;-74
2021/11/29 08:02:54;;;;;;;31.50;15.23;;;;;;;-1.46;100.00;94187.22;5025899;28;20042;-75
2021/11/29 08:05:21;;;;;;;34.72;15.07;;;;;;;-1.48;100.00;94194.41;5023248;28;20586;-73
2021/11/29 08:07:49;;;;;;;25.95;13.35;;;;;;;-1.28;100.00;94194.84;5025834;28;20046;-75
2021/11/29 08:10:15;;;;;;;32.75;14.98;;;;;;;-1.36;100.00;94208.09;5013024;28;20050;-74
2021/11/29 08:12:40;;;;;;;37.58;16.35;;;;;;;-1.44;100.00;94205.84;5026853;28;20087;-73
2021/11/29 08:15:07;;;;;;;31.63;15.05;;;;;;;-1.48;100.00;94220.19;5023666;28;20044;-75
2021/11/29 08:17:32;;;;;;;36.97;16.25;;;;;;;-1.44;100.00;94216.16;5026039;28;20052;-75
2021/11/29 08:19:58;;;;;;;32.63;14.40;;;;;;;-1.43;100.00;94217.75;5024681;28;20128;-74
2021/11/29 08:22:24;;;;;;;31.48;14.23;;;;;;;-1.30;100.00;94222.66;5022850;28;20042;-76
2021/11/29 08:24:49;;;;;;;31.98;15.13;;;;;;;-1.44;100.00;94226.47;5008321;28;20547;-73
2021/11/29 08:27:15;;;;;;;31.27;14.82;;;;;;;-1.37;100.00;94227.16;5008484;28;20080;-72
2021/11/29 08:29:41;;;;;;;30.42;14.75;;;;;;;-1.42;100.00;94230.41;5003224;28;20045;-72
2021/11/29 08:32:07;;;;;;;31.42;14.10;;;;;;;-1.28;100.00;94225.81;5034251;28;20037;-73
2021/11/29 08:34:34;;;;;;;31.50;14.55;;;;;;;-1.29;100.00;94228.63;5026601;28;20490;-72
2021/11/29 08:37:01;;;;;;;34.20;14.52;;;;;;;-1.26;100.00;94234.09;5022685;28;20424;-71
2021/11/29 08:39:26;;;;;;;31.95;14.85;;;;;;;-1.11;100.00;94245.75;5006648;28;20068;-70
2021/11/29 08:41:52;;;;;;;25.83;12.75;;;;;;;-1.00;100.00;94244.19;5024349;28;20033;-71
2021/11/29 08:44:17;;;;;;;32.70;13.40;;;;;;;-1.15;100.00;94244.63;5027314;28;20041;-72
2021/11/29 08:46:48;;;;;;;31.20;14.07;;;;;;;-1.17;100.00;94251.84;5024110;28;20064;-71
2021/11/29 08:49:16;;;;;;;27.42;13.07;;;;;;;-1.11;100.00;94256.09;5023744;28;20528;-71
2021/11/29 08:51:42;;;;;;;29.65;12.30;;;;;;;-1.14;100.00;94272.03;5000757;28;20384;-71
2021/11/29 08:54:07;;;;;;;26.00;11.98;;;;;;;-1.13;100.00;94271.03;5026366;28;20049;-70
2021/11/29 08:56:33;;;;;;;26.45;10.80;;;;;;;-1.19;100.00;94279.66;5025057;28;20057;-70
2021/11/29 08:58:58;;;;;;;27.23;11.68;;;;;;;-1.18;100.00;94281.25;5025428;28;20606;-70
2021/11/29 09:01:24;;;;;;;29.83;12.68;;;;;;;-1.03;100.00;94278.97;5026399;28;20746;-71
2021/11/29 09:03:49;;;;;;;22.75;10.75;;;;;;;-1.23;100.00;94287.84;5026116;28;20410;-70
2021/11/29 09:06:15;;;;;;;30.15;12.82;;;;;;;-1.11;100.00;94292.22;5023098;28;20100;-70
2021/11/29 09:08:40;;;;;;;26.42;11.68;;;;;;;-1.09;100.00;94295.38;5003543;28;20045;-70
2021/11/29 09:11:07;;;;;;;25.40;11.80;;;;;;;-1.06;100.00;94300.09;5009120;28;20475;-70
2021/11/29 09:13:34;;;;;;;22.25;10.85;;;;;;;-0.95;100.00;94301.88;5024087;28;20997;-71
2021/11/29 09:16:03;;;;;;;23.73;10.82;;;;;;;-0.81;100.00;94301.63;5026696;28;20049;-71
2021/11/29 09:18:28;;;;;;;22.35;9.95;;;;;;;-0.74;100.00;94308.25;5029377;28;20045;-70
2021/11/29 09:20:54;;;;;;;26.17;9.98;;;;;;;-0.52;100.00;94315.38;5029801;28;20053;-70
2021/11/29 09:23:21;;;;;;;21.88;10.35;;;;;;;-0.47;100.00;94317.28;5027616;28;20046;-71
2021/11/29 09:25:47;;;;;;;22.73;10.50;;;;;;;-0.64;100.00;94312.81;5030609;28;20158;-71
2021/11/29 09:28:13;;;;;;;23.25;10.50;;;;;;;-0.47;100.00;94317.28;5018838;28;20091;-71
2021/11/29 09:30:41;;;;;;;24.95;11.43;;;;;;;-0.21;100.00;94309.00;5030550;28;20045;-71
2021/11/29 09:33:08;;;;;;;24.50;10.73;;;;;;;0.08;98.87;94318.53;5027350;28;20064;-70
2021/11/29 09:35:35;;;;;;;20.42;10.52;;;;;;;0.57;96.68;94326.59;5024200;28;20054;-70
2021/11/29 09:38:01;;;;;;;24.45;11.10;;;;;;;0.99;95.28;94317.59;5030661;28;20049;-71
2021/11/29 09:40:33;;;;;;;23.73;10.75;;;;;;;1.30;95.03;94312.84;5030270;28;20037;-71
2021/11/29 09:43:00;;;;;;;21.70;10.27;;;;;;;1.03;94.88;94318.69;5021852;28;20042;-71
2021/11/29 09:45:27;;;;;;;25.60;11.50;;;;;;;0.54;96.58;94315.94;5029595;28;20044;-70
2021/11/29 09:47:54;;;;;;;27.58;11.40;;;;;;;-0.08;98.92;94317.50;5026050;28;20046;-71
2021/11/29 09:50:20;;;;;;;22.17;10.57;;;;;;;-0.32;100.00;94314.97;5029284;28;20100;-71
2021/11/29 09:52:46;;;;;;;20.90;9.90;;;;;;;-0.56;100.00;94322.81;5008608;28;20048;-71
2021/11/29 09:55:18;;;;;;;23.65;11.00;;;;;;;-0.41;100.00;94327.50;5024166;28;20057;-71
2021/11/29 09:57:44;;;;;;;17.27;9.05;;;;;;;-0.64;100.00;94323.16;5027868;28;20041;-71
2021/11/29 10:00:18;;;;;;;25.02;11.50;;;;;;;-0.66;100.00;94320.03;5028748;28;20053;-70
2021/11/29 10:02:44;;;;;;;26.02;11.80;;;;;;;-0.76;100.00;94320.59;5029551;28;20116;-71
2021/11/29 10:05:10;;;;;;;26.27;11.30;;;;;;;-0.74;100.00;94322.97;5026026;28;20046;-71
2021/11/29 10:07:47;;;;;;;25.63;11.90;;;;;;;-0.71;100.00;94327.66;5030069;28;20121;-71
2021/11/29 10:10:20;;;;;;;26.15;11.57;;;;;;;-0.57;100.00;94323.81;5002852;28;20044;-71
2021/11/29 10:12:51;;;;;;;22.48;9.63;;;;;;;-0.60;100.00;94329.44;5003264;28;20049;-70
2021/11/29 10:15:33;;;;;;;27.52;11.38;;;;;;;-0.57;100.00;94334.16;5025007;28;20041;-70
2021/11/29 10:18:01;;;;;;;29.23;11.43;;;;;;;-0.58;100.00;94332.59;5028393;28;20041;-70
2021/11/29 10:20:29;;;;;;;26.92;11.95;;;;;;;-0.49;100.00;94340.00;5028540;28;20092;-71
2021/11/29 10:23:05;;;;;;;18.40;8.60;;;;;;;-0.06;100.00;94346.47;5007374;28;20067;-73
2021/11/29 10:25:31;;;;;;;23.83;11.02;;;;;;;-0.01;99.25;94336.25;5029831;28;20041;-74
2021/11/29 10:27:57;;;;;;;23.88;10.20;;;;;;;-0.07;98.61;94337.16;5026082;28;20037;-73
2021/11/29 10:30:26;;;;;;;28.25;10.80;;;;;;;-0.03;100.00;94343.44;5027762;28;20053;-75
2021/11/29 10:32:52;;;;;;;29.98;10.75;;;;;;;-0.11;100.00;94341.25;5028053;28;20430;-74
2021/11/29 10:35:28;;;;;;;20.98;9.18;;;;;;;-0.25;100.00;94343.28;5027870;28;20045;-74
2021/11/29 10:37:55;;;;;;;21.05;9.18;;;;;;;-0.16;98.35;94343.72;5004930;28;20656;-73
2021/11/29 10:40:21;;;;;;;21.63;10.18;;;;;;;-0.33;99.39;94347.03;5020467;28;20052;-72
2021/11/29 10:42:47;;;;;;;22.58;10.52;;;;;;;-0.27;100.00;94353.09;5024124;28;20033;-73
2021/11/29 10:45:25;;;;;;;22.42;9.43;;;;;;;-0.34;99.37;94345.47;5024000;28;20048;-74
2021/11/29 10:47:53;;;;;;;19.08;8.90;;;;;;;-0.44;99.95;94347.84;5029094;28;20045;-75
2021/11/29 10:50:28;;;;;;;20.70;9.68;;;;;;;-0.39;100.00;94360.84;5028041;28;20041;-76
2021/11/29 10:53:11;;;;;;;22.15;9.52;;;;;;;-0.35;99.46;94354.22;5028534;28;20169;-74
2021/11/29 10:55:56;;;;;;;22.42;10.10;;;;;;;-0.31;98.90;94363.09;5006980;28;20053;-78
2021/11/29 10:58:25;;;;;;;21.35;10.00;;;;;;;-0.46;100.00;94365.38;5027322;28;20045;-74
2021/11/29 11:00:51;;;;;;;18.58;9.20;;;;;;;-0.25;100.00;94375.09;5027719;28;20046;-74
2021/11/29 11:03:16;;;;;;;23.35;10.07;;;;;;;-0.32;99.14;94374.44;5026337;28;20045;-73
2021/11/29 11:05:59;;;;;;;22.33;10.55;;;;;;;-0.20;99.04;94375.22;5024282;28;20040;-73
2021/11/29 11:08:35;;;;;;;19.45;9.10;;;;;;;-0.11;98.49;94372.28;5029014;28;20046;-74
2021/11/29 11:11:02;;;;;;;23.27;9.82;;;;;;;-0.15;99.73;94371.94;5025437;28;20124;-73